createdAt,value
2023-05-13T00:01:10.517Z,96816.05
2023-05-13T00:03:38.922Z,96813.50
2023-05-13T00:06:07.436Z,96813.61
2023-05-13T00:08:35.779Z,96811.33
2023-05-13T00:11:04.213Z,96810.29
2023-05-13T00:13:32.620Z,96812.23
2023-05-13T00:16:00.997Z,96813.87
2023-05-13T00:18:29.624Z,96812.69
2023-05-13T00:20:57.936Z,96813.66
2023-05-13T00:23:26.385Z,96816.11
2023-05-13T00:25:54.666Z,96814.56
2023-05-13T00:28:23.009Z,96815.92
2023-05-13T00:30:51.794Z,96811.05
2023-05-13T00:33:20.088Z,96813.77
2023-05-13T00:35:48.396Z,96814.08
2023-05-13T00:38:17.922Z,96810.40
2023-05-13T00:40:47.088Z,96812.25
2023-05-13T00:43:15.443Z,96814.21
2023-05-13T00:45:43.942Z,96816.13
2023-05-13T00:48:12.429Z,96815.41
2023-05-13T00:50:44.737Z,96817.48
2023-05-13T00:53:13.611Z,96819.23
2023-05-13T00:55:46.269Z,96818.11
2023-05-13T00:58:14.591Z,96820.64
2023-05-13T01:01:32.290Z,96822.70
2023-05-13T01:04:19.254Z,96821.44
2023-05-13T01:06:55.215Z,96825.21
2023-05-13T01:09:26.528Z,96822.77
2023-05-13T01:11:56.668Z,96828.02
2023-05-13T01:14:33.791Z,96825.87
2023-05-13T01:17:11.867Z,96824.96
2023-05-13T01:19:47.024Z,96824.36
2023-05-13T01:22:15.594Z,96825.05
2023-05-13T01:24:44.125Z,96822.65
2023-05-13T01:27:13.919Z,96822.77
2023-05-13T01:29:42.689Z,96823.52
2023-05-13T01:32:12.789Z,96825.55
2023-05-13T01:34:41.951Z,96822.48
2023-05-13T01:37:10.282Z,96819.35
2023-05-13T01:39:39.578Z,96819.77
2023-05-13T01:42:10.619Z,96817.73
2023-05-13T01:44:39.252Z,96816.02
2023-05-13T01:47:07.683Z,96817.73
2023-05-13T01:49:36.308Z,96818.09
2023-05-13T01:52:04.911Z,96817.31
2023-05-13T01:54:33.386Z,96813.58
2023-05-13T01:57:06.064Z,96813.67
2023-05-13T01:59:34.427Z,96814.11
2023-05-13T02:02:04.233Z,96813.52
2023-05-13T02:04:32.749Z,96811.41
2023-05-13T02:07:01.508Z,96811.01
2023-05-13T02:09:31.420Z,96809.09
2023-05-13T02:12:00.401Z,96807.33
2023-05-13T02:14:29.897Z,96808.93
2023-05-13T02:16:58.328Z,96808.63
2023-05-13T02:19:26.713Z,96807.58
2023-05-13T02:21:55.086Z,96808.59
2023-05-13T02:24:23.528Z,96808.70
2023-05-13T02:26:53.254Z,96808.07
2023-05-13T02:29:21.571Z,96806.35
2023-05-13T02:31:50.644Z,96805.19
2023-05-13T02:34:19.179Z,96808.56
2023-05-13T02:36:48.787Z,96806.69
2023-05-13T02:39:17.172Z,96805.48
2023-05-13T02:41:45.783Z,96805.30
2023-05-13T02:44:14.420Z,96806.52
2023-05-13T02:46:44.331Z,96805.15
2023-05-13T02:49:13.057Z,96807.83
2023-05-13T02:51:41.424Z,96802.69
2023-05-13T02:54:09.722Z,96808.70
2023-05-13T02:56:38.191Z,96809.34
2023-05-13T02:59:06.899Z,96814.45
2023-05-13T03:01:35.539Z,96813.48
2023-05-13T03:04:04.206Z,96814.20
2023-05-13T03:06:32.861Z,96819.14
2023-05-13T03:09:01.229Z,96818.98
2023-05-13T03:11:29.604Z,96820.34
2023-05-13T03:13:57.987Z,96821.93
2023-05-13T03:16:27.024Z,96824.85
2023-05-13T03:18:55.907Z,96823.42
2023-05-13T03:21:24.333Z,96819.45
2023-05-13T03:23:52.688Z,96820.78
2023-05-13T03:26:22.024Z,96827.47
2023-05-13T03:28:50.422Z,96825.37
2023-05-13T03:31:19.329Z,96829.68
2023-05-13T03:33:47.863Z,96831.17
2023-05-13T03:36:16.490Z,96835.43
2023-05-13T03:38:44.826Z,96835.85
2023-05-13T03:41:13.355Z,96840.91
2023-05-13T03:43:41.700Z,96843.52
2023-05-13T03:46:11.762Z,96845.86
2023-05-13T03:48:40.170Z,96847.92
2023-05-13T03:51:08.660Z,96849.92
2023-05-13T03:53:37.348Z,96850.76
2023-05-13T03:56:05.951Z,96853.46
2023-05-13T03:58:34.286Z,96849.93
2023-05-13T04:01:02.795Z,96853.05
2023-05-13T04:03:31.711Z,96851.58
2023-05-13T04:06:01.044Z,96853.90
2023-05-13T04:08:29.671Z,96855.58
2023-05-13T04:10:57.934Z,96855.70
2023-05-13T04:13:27.676Z,96854.54
2023-05-13T04:15:56.060Z,96855.14
2023-05-13T04:18:24.519Z,96856.83
2023-05-13T04:20:52.931Z,96860.06
2023-05-13T04:23:21.343Z,96862.88
2023-05-13T04:25:53.251Z,96864.61
2023-05-13T04:28:21.643Z,96867.10
2023-05-13T04:30:51.582Z,96867.94
2023-05-13T04:33:20.163Z,96871.02
2023-05-13T04:35:50.082Z,96872.48
2023-05-13T04:38:18.829Z,96871.54
2023-05-13T04:40:48.205Z,96875.35
2023-05-13T04:43:22.516Z,96875.27
2023-05-13T04:45:57.228Z,96879.70
2023-05-13T04:48:28.146Z,96876.04
2023-05-13T04:50:58.968Z,96876.61
2023-05-13T04:53:27.870Z,96879.52
2023-05-13T04:56:01.102Z,96880.02
2023-05-13T04:58:30.947Z,96884.19
2023-05-13T05:00:59.311Z,96886.74
2023-05-13T05:03:27.754Z,96885.69
2023-05-13T05:05:56.221Z,96887.95
2023-05-13T05:08:25.394Z,96888.27
2023-05-13T05:10:53.766Z,96888.17
2023-05-13T05:13:22.199Z,96887.59
2023-05-13T05:15:51.069Z,96889.50
2023-05-13T05:18:19.540Z,96888.52
2023-05-13T05:20:50.315Z,96887.67
2023-05-13T05:23:20.923Z,96891.80
2023-05-13T05:25:57.801Z,96893.64
2023-05-13T05:28:34.532Z,96888.76
2023-05-13T05:31:03.214Z,96888.48
2023-05-13T05:33:32.782Z,96888.46
2023-05-13T05:36:01.219Z,96890.17
2023-05-13T05:38:29.561Z,96894.83
2023-05-13T05:40:59.365Z,96894.56
2023-05-13T05:43:28.388Z,96897.38
2023-05-13T05:45:56.999Z,96899.54
2023-05-13T05:48:26.801Z,96903.33
2023-05-13T05:50:56.486Z,96900.96
2023-05-13T05:53:28.531Z,96908.45
2023-05-13T05:55:56.915Z,96910.25
2023-05-13T05:58:27.230Z,96907.09
2023-05-13T06:00:57.142Z,96905.14
2023-05-13T06:03:25.974Z,96907.10
2023-05-13T06:05:54.884Z,96909.11
2023-05-13T06:08:29.931Z,96908.30
2023-05-13T06:10:58.991Z,96912.36
2023-05-13T06:13:27.620Z,96913.65
2023-05-13T06:15:56.978Z,96913.51
2023-05-13T06:18:26.853Z,96913.36
2023-05-13T06:20:55.817Z,96918.63
2023-05-13T06:23:24.185Z,96917.70
2023-05-13T06:25:53.192Z,96918.47
2023-05-13T06:28:21.588Z,96914.72
2023-05-13T06:30:53.858Z,96914.15
2023-05-13T06:33:22.549Z,96912.20
2023-05-13T06:35:51.097Z,96910.69
2023-05-13T06:38:22.606Z,96911.13
2023-05-13T06:40:54.268Z,96913.66
2023-05-13T06:43:28.401Z,96909.64
2023-05-13T06:46:00.110Z,96910.34
2023-05-13T06:48:29.778Z,96911.13
2023-05-13T06:50:58.419Z,96912.92
2023-05-13T06:53:26.827Z,96911.27
2023-05-13T06:55:55.212Z,96911.70
2023-05-13T06:58:23.600Z,96912.63
2023-05-13T07:00:52.189Z,96911.17
2023-05-13T07:03:20.619Z,96913.93
2023-05-13T07:05:48.949Z,96910.79
2023-05-13T07:08:18.203Z,96913.59
2023-05-13T07:10:46.718Z,96915.73
2023-05-13T07:13:15.371Z,96917.05
2023-05-13T07:15:43.924Z,96918.17
2023-05-13T07:18:12.366Z,96923.11
2023-05-13T07:20:40.914Z,96915.59
2023-05-13T07:23:09.322Z,96917.80
2023-05-13T07:25:37.716Z,96919.56
2023-05-13T07:28:06.076Z,96920.77
2023-05-13T07:30:34.510Z,96922.50
2023-05-13T07:33:03.269Z,96921.91
2023-05-13T07:35:31.751Z,96924.95
2023-05-13T07:38:00.098Z,96925.47
2023-05-13T07:40:28.490Z,96929.66
2023-05-13T07:42:56.921Z,96931.68
2023-05-13T07:45:25.257Z,96937.08
2023-05-13T07:47:53.682Z,96939.00
2023-05-13T07:50:22.047Z,96940.56
2023-05-13T07:52:51.916Z,96941.64
2023-05-13T07:55:20.653Z,96945.95
2023-05-13T07:57:49.320Z,96945.55
2023-05-13T08:00:17.937Z,96948.98
2023-05-13T08:02:46.414Z,96950.52
2023-05-13T08:05:14.843Z,96953.08
2023-05-13T08:07:43.217Z,96955.14
2023-05-13T08:10:11.544Z,96958.48
2023-05-13T08:12:40.683Z,96954.17
2023-05-13T08:15:09.554Z,96953.84
2023-05-13T08:17:38.172Z,96957.06
2023-05-13T08:20:07.061Z,96955.86
2023-05-13T08:22:35.392Z,96956.59
2023-05-13T08:25:04.255Z,96958.03
2023-05-13T08:27:32.681Z,96956.95
2023-05-13T08:30:01.030Z,96960.28
2023-05-13T08:32:29.416Z,96960.16
2023-05-13T08:34:57.943Z,96957.30
2023-05-13T08:37:26.330Z,96955.03
2023-05-13T08:39:56.613Z,96953.84
2023-05-13T08:42:25.575Z,96956.34
2023-05-13T08:44:54.361Z,96956.30
2023-05-13T08:47:41.541Z,96956.82
2023-05-13T08:50:11.934Z,96954.14
2023-05-13T08:52:40.334Z,96962.19
2023-05-13T08:55:09.154Z,96956.89
2023-05-13T08:57:37.522Z,96958.36
2023-05-13T09:00:06.447Z,96961.16
2023-05-13T09:02:35.010Z,96961.14
2023-05-13T09:05:09.895Z,96958.23
2023-05-13T09:07:39.807Z,96958.73
2023-05-13T09:10:09.312Z,96954.67
2023-05-13T09:12:44.845Z,96953.30
2023-05-13T09:15:15.228Z,96959.17
2023-05-13T09:17:45.683Z,96954.67
2023-05-13T09:20:15.917Z,96956.02
2023-05-13T09:23:08.202Z,96956.52
2023-05-13T09:25:39.952Z,96952.88
2023-05-13T09:28:08.784Z,96950.27
2023-05-13T09:30:45.582Z,96953.89
2023-05-13T09:33:17.112Z,96951.58
2023-05-13T09:35:50.907Z,96945.79
2023-05-13T09:38:21.860Z,96945.88
2023-05-13T09:40:54.451Z,96945.89
2023-05-13T09:43:27.612Z,96941.20
2023-05-13T09:45:58.165Z,96943.71
2023-05-13T09:48:27.388Z,96943.34
2023-05-13T09:50:58.404Z,96945.09
2023-05-13T09:53:28.740Z,96944.18
2023-05-13T09:55:58.796Z,96942.53
2023-05-13T09:58:29.258Z,96942.31
2023-05-13T10:00:57.877Z,96939.41
2023-05-13T10:03:28.734Z,96939.42
2023-05-13T10:06:00.532Z,96939.13
2023-05-13T10:08:31.101Z,96938.54
2023-05-13T10:10:59.989Z,96938.68
2023-05-13T10:13:31.369Z,96939.34
2023-05-13T10:16:00.057Z,96938.63
2023-05-13T10:18:29.296Z,96938.86
2023-05-13T10:20:58.304Z,96938.54
2023-05-13T10:23:28.237Z,96940.06
2023-05-13T10:25:59.579Z,96943.27
2023-05-13T10:28:28.297Z,96946.55
2023-05-13T10:30:57.432Z,96944.86
2023-05-13T10:33:29.748Z,96944.56
2023-05-13T10:36:13.374Z,96944.26
2023-05-13T10:38:48.400Z,96942.73
2023-05-13T10:41:52.051Z,96942.89
2023-05-13T10:44:20.508Z,96943.20
2023-05-13T10:46:49.023Z,96943.75
2023-05-13T10:49:17.493Z,96941.16
2023-05-13T10:51:47.619Z,96943.00
2023-05-13T10:54:20.786Z,96940.64
2023-05-13T10:57:02.477Z,96942.45
2023-05-13T10:59:30.960Z,96942.24
2023-05-13T11:02:03.990Z,96939.56
2023-05-13T11:04:32.474Z,96938.86
2023-05-13T11:07:15.484Z,96944.06
2023-05-13T11:09:50.037Z,96944.67
2023-05-13T11:12:18.343Z,96940.52
2023-05-13T11:14:46.979Z,96944.20
2023-05-13T11:17:19.009Z,96942.79
2023-05-13T11:19:50.137Z,96941.02
2023-05-13T11:22:18.499Z,96943.52
2023-05-13T11:25:05.807Z,96942.81
2023-05-13T11:27:40.090Z,96943.02
2023-05-13T11:30:22.838Z,96945.63
2023-05-13T11:32:51.639Z,96941.36
2023-05-13T11:35:30.644Z,96947.23
2023-05-13T11:38:01.540Z,96946.77
2023-05-13T11:40:30.974Z,96941.72
2023-05-13T11:43:00.508Z,96943.71
2023-05-13T11:45:30.405Z,96941.71
2023-05-13T11:47:59.444Z,96941.30
2023-05-13T11:50:32.592Z,96942.23
2023-05-13T11:53:02.244Z,96944.80
2023-05-13T11:55:36.330Z,96952.42
2023-05-13T11:58:04.940Z,96947.16
2023-05-13T12:00:35.149Z,96946.78
2023-05-13T12:03:13.358Z,96946.61
2023-05-13T12:05:44.312Z,96948.36
2023-05-13T12:08:12.918Z,96943.08
2023-05-13T12:10:45.355Z,96943.17
2023-05-13T12:13:14.067Z,96941.86
2023-05-13T12:15:42.732Z,96937.98
2023-05-13T12:18:11.495Z,96937.23
2023-05-13T12:20:40.023Z,96934.67
2023-05-13T12:23:12.057Z,96933.08
2023-05-13T12:25:48.017Z,96933.10
2023-05-13T12:28:23.500Z,96933.59
2023-05-13T12:30:56.841Z,96930.66
2023-05-13T12:33:27.545Z,96928.67
2023-05-13T12:36:16.707Z,96927.08
2023-05-13T12:39:11.144Z,96923.06
2023-05-13T12:41:41.527Z,96915.35
2023-05-13T12:44:14.243Z,96916.64
2023-05-13T12:46:52.959Z,96912.39
2023-05-13T12:49:22.464Z,96912.09
2023-05-13T12:51:51.926Z,96906.52
2023-05-13T12:54:20.300Z,96904.79
2023-05-13T12:56:48.686Z,96899.67
2023-05-13T12:59:19.258Z,96898.36
2023-05-13T13:01:49.960Z,96900.86
2023-05-13T13:04:19.248Z,96900.90
2023-05-13T13:06:47.636Z,96898.72
2023-05-13T13:09:16.005Z,96905.39
2023-05-13T13:11:44.378Z,96904.48
2023-05-13T13:14:12.648Z,96904.85
2023-05-13T13:16:41.036Z,96902.30
2023-05-13T13:19:10.162Z,96897.98
2023-05-13T13:21:38.522Z,96894.85
2023-05-13T13:24:07.119Z,96891.10
2023-05-13T13:26:35.600Z,96888.67
2023-05-13T13:29:03.926Z,96890.23
2023-05-13T13:31:32.313Z,96887.75
2023-05-13T13:34:04.488Z,96882.36
2023-05-13T13:36:33.020Z,96881.97
2023-05-13T13:39:01.429Z,96883.25
2023-05-13T13:41:29.729Z,96880.68
2023-05-13T13:43:58.414Z,96881.88
2023-05-13T13:46:27.119Z,96882.30
2023-05-13T13:48:55.462Z,96881.13
2023-05-13T13:51:23.892Z,96880.48
2023-05-13T13:53:52.174Z,96880.20
2023-05-13T13:56:21.065Z,96876.66
2023-05-13T13:58:49.337Z,96877.70
2023-05-13T14:01:19.836Z,96879.11
2023-05-13T14:03:50.679Z,96878.86
2023-05-13T14:06:19.171Z,96882.61
2023-05-13T14:08:47.554Z,96883.83
2023-05-13T14:11:16.804Z,96888.84
2023-05-13T14:13:45.158Z,96886.21
2023-05-13T14:16:13.569Z,96891.10
2023-05-13T14:18:43.401Z,96891.05
2023-05-13T14:21:11.708Z,96885.45
2023-05-13T14:23:42.072Z,96884.73
2023-05-13T14:26:11.928Z,96884.60
2023-05-13T14:28:40.267Z,96884.29
2023-05-13T14:31:08.722Z,96886.42
2023-05-13T14:33:37.571Z,96889.00
2023-05-13T14:36:06.586Z,96888.34
2023-05-13T14:38:35.252Z,96885.42
2023-05-13T14:41:03.690Z,96884.73
2023-05-13T14:43:32.047Z,96890.85
2023-05-13T14:46:00.395Z,96891.06
2023-05-13T14:48:28.686Z,96890.76
2023-05-13T14:50:56.956Z,96891.52
2023-05-13T14:53:25.316Z,96886.48
2023-05-13T14:55:54.023Z,96886.49
2023-05-13T14:58:22.534Z,96887.00
2023-05-13T15:00:50.940Z,96888.71
2023-05-13T15:03:19.370Z,96890.15
2023-05-13T15:05:47.831Z,96888.80
2023-05-13T15:08:16.810Z,96889.27
2023-05-13T15:10:45.116Z,96885.16
2023-05-13T15:13:13.519Z,96887.65
2023-05-13T15:15:41.951Z,96884.55
2023-05-13T15:18:10.494Z,96887.25
2023-05-13T15:20:38.858Z,96891.09
2023-05-13T15:23:07.144Z,96892.19
2023-05-13T15:25:36.182Z,96892.80
2023-05-13T15:28:04.697Z,96888.34
2023-05-13T15:30:36.463Z,96885.36
2023-05-13T15:33:04.969Z,96883.98
2023-05-13T15:35:34.404Z,96886.42
2023-05-13T15:38:03.638Z,96885.16
2023-05-13T15:40:32.123Z,96882.44
2023-05-13T15:43:00.479Z,96882.52
2023-05-13T15:45:29.259Z,96879.05
2023-05-13T15:47:57.758Z,96881.29
2023-05-13T15:50:26.287Z,96879.35
2023-05-13T15:52:54.814Z,96878.30
2023-05-13T15:55:23.158Z,96877.27
2023-05-13T15:57:51.716Z,96880.71
2023-05-13T16:00:20.252Z,96878.13
2023-05-13T16:02:48.794Z,96870.83
2023-05-13T16:05:19.358Z,96869.60
2023-05-13T16:07:47.819Z,96872.39
2023-05-13T16:10:16.258Z,96872.07
2023-05-13T16:12:44.796Z,96873.73
2023-05-13T16:15:13.153Z,96873.72
2023-05-13T16:17:41.567Z,96875.13
2023-05-13T16:20:11.719Z,96875.48
2023-05-13T16:22:40.708Z,96875.63
2023-05-13T16:25:10.795Z,96875.34
2023-05-13T16:27:40.100Z,96875.05
2023-05-13T16:30:08.692Z,96872.45
2023-05-13T16:32:37.712Z,96876.02
2023-05-13T16:35:06.640Z,96876.04
2023-05-13T16:37:35.588Z,96877.61
2023-05-13T16:40:05.095Z,96877.08
2023-05-13T16:42:33.419Z,96877.19
2023-05-13T16:45:01.761Z,96873.52
2023-05-13T16:47:30.135Z,96874.02
2023-05-13T16:49:58.712Z,96878.42
2023-05-13T16:52:27.262Z,96876.99
2023-05-13T16:54:57.796Z,96877.01
2023-05-13T16:57:27.409Z,96878.36
2023-05-13T16:59:55.762Z,96876.83
2023-05-13T17:02:24.407Z,96878.86
2023-05-13T17:04:52.888Z,96877.23
2023-05-13T17:07:21.225Z,96881.08
2023-05-13T17:09:49.562Z,96880.13
2023-05-13T17:12:17.894Z,96879.53
2023-05-13T17:14:46.281Z,96877.80
2023-05-13T17:17:14.947Z,96874.92
2023-05-13T17:19:43.298Z,96870.27
2023-05-13T17:22:11.709Z,96870.84
2023-05-13T17:24:40.720Z,96872.23
2023-05-13T17:27:09.437Z,96870.09
2023-05-13T17:29:37.882Z,96873.50
2023-05-13T17:32:07.118Z,96875.09
2023-05-13T17:34:35.446Z,96876.37
2023-05-13T17:37:03.834Z,96877.71
2023-05-13T17:39:32.238Z,96877.73
2023-05-13T17:42:00.657Z,96879.91
2023-05-13T17:44:29.035Z,96881.41
2023-05-13T17:46:57.421Z,96880.40
2023-05-13T17:49:25.797Z,96877.94
2023-05-13T17:51:54.261Z,96878.70
2023-05-13T17:54:22.599Z,96884.89
2023-05-13T17:56:51.021Z,96883.01
2023-05-13T17:59:19.308Z,96879.04
2023-05-13T18:01:47.707Z,96877.06
2023-05-13T18:04:16.255Z,96875.70
2023-05-13T18:06:44.895Z,96875.48
2023-05-13T18:09:13.169Z,96873.97
2023-05-13T18:11:41.520Z,96873.98
2023-05-13T18:14:09.960Z,96875.34
2023-05-13T18:16:38.528Z,96879.73
2023-05-13T18:19:07.112Z,96878.67
2023-05-13T18:21:35.479Z,96878.77
2023-05-13T18:24:03.952Z,96880.67
2023-05-13T18:26:32.279Z,96877.48
2023-05-13T18:29:00.772Z,96882.85
2023-05-13T18:31:29.237Z,96883.95
2023-05-13T18:33:57.546Z,96885.87
2023-05-13T18:36:25.991Z,96885.02
2023-05-13T18:38:55.171Z,96885.79
2023-05-13T18:41:23.542Z,96888.85
2023-05-13T18:43:51.857Z,96890.61
2023-05-13T18:46:20.314Z,96892.21
2023-05-13T18:48:48.677Z,96895.23
2023-05-13T18:51:17.112Z,96893.42
2023-05-13T18:53:45.892Z,96900.40
2023-05-13T18:56:14.271Z,96901.55
2023-05-13T18:58:42.582Z,96895.91
2023-05-13T19:01:11.270Z,96896.81
2023-05-13T19:03:39.828Z,96898.02
2023-05-13T19:06:08.478Z,96897.83
2023-05-13T19:08:36.785Z,96896.02
2023-05-13T19:11:05.091Z,96893.63
2023-05-13T19:13:46.115Z,96892.85
2023-05-13T19:16:16.128Z,96894.92
2023-05-13T19:18:44.605Z,96891.72
2023-05-13T19:21:12.976Z,96893.40
2023-05-13T19:23:41.398Z,96894.55
2023-05-13T19:26:09.834Z,96901.33
2023-05-13T19:28:38.655Z,96900.20
2023-05-13T19:31:07.455Z,96899.09
2023-05-13T19:33:37.242Z,96903.23
2023-05-13T19:36:06.654Z,96904.91
2023-05-13T19:38:35.690Z,96908.48
2023-05-13T19:41:04.076Z,96910.95
2023-05-13T19:43:32.387Z,96911.17
2023-05-13T19:46:01.043Z,96908.49
2023-05-13T19:48:30.122Z,96905.09
2023-05-13T19:50:58.586Z,96910.76
2023-05-13T19:53:27.024Z,96911.77
2023-05-13T19:55:56.043Z,96912.70
2023-05-13T19:58:24.482Z,96912.19
2023-05-13T20:00:54.820Z,96915.98
2023-05-13T20:03:23.357Z,96914.02
2023-05-13T20:05:53.179Z,96913.70
2023-05-13T20:08:21.519Z,96918.01
2023-05-13T20:10:49.841Z,96919.77
2023-05-13T20:13:18.194Z,96919.89
2023-05-13T20:15:46.747Z,96917.46
2023-05-13T20:18:15.163Z,96918.56
2023-05-13T20:20:43.634Z,96913.32
2023-05-13T20:23:14.442Z,96911.15
2023-05-13T20:25:43.015Z,96911.15
2023-05-13T20:28:11.333Z,96913.45
2023-05-13T20:30:43.069Z,96915.17
2023-05-13T20:33:11.482Z,96913.75
2023-05-13T20:35:39.912Z,96912.51
2023-05-13T20:38:08.291Z,96916.21
2023-05-13T20:40:36.938Z,96917.55
2023-05-13T20:43:07.511Z,96919.23
2023-05-13T20:45:39.451Z,96916.38
2023-05-13T20:48:08.209Z,96915.91
2023-05-13T20:50:37.403Z,96908.27
2023-05-13T20:53:05.852Z,96909.06
2023-05-13T20:55:34.213Z,96908.02
2023-05-13T20:58:02.524Z,96905.66
2023-05-13T21:00:31.129Z,96901.91
2023-05-13T21:03:00.033Z,96901.64
2023-05-13T21:05:28.490Z,96901.54
2023-05-13T21:07:56.924Z,96903.23
2023-05-13T21:10:25.504Z,96900.80
2023-05-13T21:12:54.067Z,96900.24
2023-05-13T21:15:22.353Z,96892.70
2023-05-13T21:17:50.772Z,96887.90
2023-05-13T21:20:19.225Z,96887.38
2023-05-13T21:22:47.651Z,96888.36
2023-05-13T21:25:16.135Z,96882.89
2023-05-13T21:27:44.468Z,96879.88
2023-05-13T21:30:13.607Z,96886.77
2023-05-13T21:32:42.029Z,96887.39
2023-05-13T21:35:10.612Z,96886.82
2023-05-13T21:37:39.076Z,96888.27
2023-05-13T21:40:08.566Z,96887.57
2023-05-13T21:42:36.964Z,96886.48
2023-05-13T21:45:05.952Z,96891.53
2023-05-13T21:47:34.345Z,96887.71
2023-05-13T21:50:02.765Z,96887.55
2023-05-13T21:52:31.184Z,96886.11
2023-05-13T21:54:59.527Z,96889.48
2023-05-13T21:57:28.140Z,96890.68
2023-05-13T21:59:56.510Z,96895.42
2023-05-13T22:02:25.019Z,96893.59
2023-05-13T22:04:53.515Z,96896.62
2023-05-13T22:07:21.807Z,96897.17
2023-05-13T22:09:50.591Z,96893.95
2023-05-13T22:12:19.036Z,96895.33
2023-05-13T22:14:47.402Z,96897.95
2023-05-13T22:17:15.792Z,96900.96
2023-05-13T22:19:44.435Z,96896.73
2023-05-13T22:22:12.838Z,96897.02
2023-05-13T22:24:41.393Z,96896.69
2023-05-13T22:27:09.882Z,96897.65
2023-05-13T22:29:38.193Z,96898.08
2023-05-13T22:32:06.835Z,96896.96
2023-05-13T22:34:35.148Z,96896.68
2023-05-13T22:37:03.830Z,96895.17
2023-05-13T22:39:32.247Z,96890.01
2023-05-13T22:42:00.560Z,96889.45
2023-05-13T22:44:29.000Z,96888.89
2023-05-13T22:46:57.407Z,96889.77
2023-05-13T22:49:25.899Z,96887.55
2023-05-13T22:51:54.237Z,96886.19
2023-05-13T22:54:22.665Z,96885.71
2023-05-13T22:56:50.982Z,96884.14
2023-05-13T22:59:19.342Z,96882.22
2023-05-13T23:01:47.753Z,96883.07
2023-05-13T23:04:16.190Z,96880.44
2023-05-13T23:06:44.589Z,96879.98
2023-05-13T23:09:12.888Z,96878.86
2023-05-13T23:11:41.225Z,96874.45
2023-05-13T23:14:09.523Z,96873.40
2023-05-13T23:16:37.922Z,96870.65
2023-05-13T23:19:06.346Z,96871.85
2023-05-13T23:21:36.671Z,96874.88
2023-05-13T23:24:05.061Z,96875.34
2023-05-13T23:26:33.370Z,96875.73
2023-05-13T23:29:01.720Z,96877.84
2023-05-13T23:31:30.208Z,96875.83
2023-05-13T23:33:58.561Z,96878.56
2023-05-13T23:36:26.907Z,96878.42
2023-05-13T23:38:58.206Z,96876.97
2023-05-13T23:41:26.493Z,96876.41
2023-05-13T23:43:54.841Z,96874.95
2023-05-13T23:46:23.522Z,96878.46
2023-05-13T23:48:51.962Z,96879.30
2023-05-13T23:51:20.989Z,96876.10
2023-05-13T23:53:49.629Z,96876.25
2023-05-13T23:56:17.932Z,96879.21
2023-05-13T23:58:46.288Z,96872.42
